Ofarrell, Texas
Current Conditions -  °F | °C
As of 2:53 AM on Monday 20 Oct 2014 (Local Time) from KTXK Reporting Station
Clear Clear  
Wind Chill: 52°   Ceiling: Unl
Heat Index: 52°   Visibility: 10mi
Dew Point: 50°   Wind: 3mph
Humidity: 93%   Direction: 120°ESE
Pressure: 30.07"   Gusts: NA
Location:  33.0888°N, 94.1627°W
Report Text: KTXK 200753Z AUTO 12003KT 10SM CLR 11/10 A3007 RMK AO2 SLP179 T01110100
Loading
Personal Weather Stations






























Interactive Weather Map
Tropical Storm Tracking
New forecast layout! Learn more

10-Day Weather Forecast

Advertisements
Track Severe Weather on mobile